Time;durP1;ratioP1;P1;durP2;ratioP2;P2;SDS_P1;SDS_P2;PMS_P1;PMS_P2;Temp;Humidity;BMP_temperature;BMP_pressure;BME280_temperature;BME280_humidity;BME280_pressure;Samples;Min_cycle;Max_cycle;Signal;HPM_P1;HPM_P2
2021/11/11 00:00:10;;;;;;;7.45;6.85;;;14.10;83.00;;;;;;5026052;28;20033;-75
2021/11/11 00:02:40;;;;;;;7.20;6.57;;;14.10;83.00;;;;;;5027495;28;20124;-75
2021/11/11 00:05:08;;;;;;;7.65;7.05;;;14.10;83.00;;;;;;5027378;28;20414;-76
2021/11/11 00:07:34;;;;;;;6.97;6.38;;;14.10;83.00;;;;;;5026747;28;20393;-76
2021/11/11 00:10:00;;;;;;;8.00;7.40;;;14.10;83.00;;;;;;5031943;28;20541;-77
2021/11/11 00:12:27;;;;;;;7.32;6.72;;;14.10;83.00;;;;;;5028592;28;20026;-76
2021/11/11 00:14:53;;;;;;;7.90;7.20;;;14.10;83.00;;;;;;5029729;28;20029;-77
2021/11/11 00:17:20;;;;;;;7.80;7.10;;;14.10;83.00;;;;;;5031190;28;20041;-76
2021/11/11 00:19:46;;;;;;;7.72;7.03;;;14.10;83.00;;;;;;5026343;28;20120;-75
2021/11/11 00:22:15;;;;;;;7.22;6.63;;;14.10;83.00;;;;;;5025959;28;20029;-76
2021/11/11 00:24:41;;;;;;;7.65;6.95;;;14.10;83.00;;;;;;5025660;28;20124;-76
2021/11/11 00:27:07;;;;;;;7.50;6.90;;;14.10;83.00;;;;;;5009275;28;20388;-75
2021/11/11 00:29:33;;;;;;;7.53;6.93;;;14.10;83.00;;;;;;5009443;28;20036;-75
2021/11/11 00:31:59;;;;;;;7.15;6.55;;;14.10;83.00;;;;;;5025610;28;20053;-77
2021/11/11 00:34:25;;;;;;;7.47;6.75;;;14.10;83.00;;;;;;5026082;28;20065;-76
2021/11/11 00:36:51;;;;;;;8.02;7.32;;;14.10;83.00;;;;;;5009825;28;20119;-76
2021/11/11 00:39:17;;;;;;;8.10;7.40;;;14.10;83.00;;;;;;5025655;28;20033;-76
2021/11/11 00:41:44;;;;;;;6.70;6.10;;;14.10;83.00;;;;;;5009422;28;20049;-75
2021/11/11 00:44:10;;;;;;;7.97;7.28;;;14.10;83.00;;;;;;5026003;28;20523;-75
2021/11/11 00:46:36;;;;;;;8.10;7.38;;;14.10;83.00;;;;;;5025329;28;20025;-77
2021/11/11 00:49:06;;;;;;;7.80;7.10;;;14.10;83.00;;;;;;5025389;28;20041;-76
2021/11/11 00:51:33;;;;;;;7.28;6.68;;;14.10;83.00;;;;;;5025354;28;20036;-76
2021/11/11 00:53:59;;;;;;;7.57;6.88;;;14.10;83.00;;;;;;5025153;28;20518;-76
2021/11/11 00:56:27;;;;;;;7.63;7.00;;;14.10;83.00;;;;;;5025198;28;20103;-75
2021/11/11 00:58:55;;;;;;;7.43;6.72;;;14.10;83.50;;;;;;5024392;28;20029;-76
2021/11/11 01:01:21;;;;;;;7.10;6.50;;;14.10;83.00;;;;;;5025383;28;20030;-76
2021/11/11 01:03:49;;;;;;;8.23;7.53;;;14.10;83.00;;;;;;5024732;28;20388;-76
2021/11/11 01:06:16;;;;;;;6.95;6.32;;;14.10;83.00;;;;;;5026274;28;20033;-76
2021/11/11 01:08:43;;;;;;;7.95;7.25;;;14.10;83.00;;;;;;5025953;28;20048;-75
2021/11/11 01:11:09;;;;;;;9.85;8.85;;;14.10;83.00;;;;;;5025010;28;20449;-75
2021/11/11 01:13:37;;;;;;;8.25;7.45;;;14.10;83.00;;;;;;5024850;28;20480;-75
2021/11/11 01:16:04;;;;;;;7.95;7.15;;;14.10;83.00;;;;;;5008602;28;20029;-76
2021/11/11 01:18:30;;;;;;;7.20;6.53;;;14.10;83.00;;;;;;5024348;28;20069;-76
2021/11/11 01:20:57;;;;;;;7.40;6.75;;;14.10;83.00;;;;;;5025988;28;20033;-76
2021/11/11 01:23:23;;;;;;;8.15;7.45;;;14.10;83.10;;;;;;5024674;28;20021;-75
2021/11/11 01:25:49;;;;;;;7.38;6.68;;;14.10;83.10;;;;;;5025743;28;20512;-75
2021/11/11 01:28:15;;;;;;;7.32;6.72;;;14.10;83.10;;;;;;5024419;28;20025;-76
2021/11/11 01:30:44;;;;;;;7.55;6.80;;;14.10;83.10;;;;;;5025960;28;20484;-75
2021/11/11 01:33:33;;;;;;;7.65;6.95;;;14.10;83.10;;;;;;5021723;28;20050;-75
2021/11/11 01:36:00;;;;;;;7.85;7.15;;;14.10;83.10;;;;;;5026190;28;20124;-75
2021/11/11 01:38:32;;;;;;;;;;;14.10;83.10;;;;;;5024871;28;20084;-76
2021/11/11 01:41:00;;;;;;;8.20;7.40;;;14.10;83.00;;;;;;5008204;28;19971;-76
2021/11/11 01:43:31;;;;;;;7.57;6.88;;;14.10;83.00;;;;;;5008680;28;20025;-76
2021/11/11 01:45:59;;;;;;;7.60;6.97;;;14.10;83.30;;;;;;5024589;28;20037;-76
2021/11/11 01:48:26;;;;;;;8.48;7.68;;;14.10;83.00;;;;;;5024980;28;20036;-76
2021/11/11 01:50:57;;;;;;;8.52;7.75;;;14.10;83.00;;;;;;5024472;28;20079;-75
2021/11/11 01:53:26;;;;;;;7.65;6.95;;;14.10;83.10;;;;;;5023864;28;20399;-75
2021/11/11 01:55:54;;;;;;;7.85;7.15;;;14.10;83.00;;;;;;5024865;28;20554;-76
2021/11/11 01:58:23;;;;;;;7.70;6.88;;;14.10;83.10;;;;;;5024042;28;20068;-76
2021/11/11 02:00:56;;;;;;;7.80;7.10;;;14.10;83.10;;;;;;5024617;28;20395;-76
2021/11/11 02:03:30;;;;;;;8.82;8.02;;;14.10;83.60;;;;;;5008815;28;20040;-76
2021/11/11 02:06:00;;;;;;;7.63;6.93;;;14.10;83.10;;;;;;5008688;28;20039;-76
2021/11/11 02:08:49;;;;;;;7.57;6.88;;;14.00;82.90;;;;;;5021642;28;20045;-75
2021/11/11 02:11:16;;;;;;;7.68;6.97;;;14.00;82.90;;;;;;5024365;28;20025;-75
2021/11/11 02:13:43;;;;;;;7.35;6.75;;;14.00;83.10;;;;;;5024381;28;20400;-76
2021/11/11 02:16:17;;;;;;;7.60;6.90;;;14.00;82.90;;;;;;5012636;28;20030;-76
2021/11/11 02:18:43;;;;;;;8.73;7.93;;;14.10;83.10;;;;;;5027104;28;20040;-76
2021/11/11 02:21:10;;;;;;;7.80;7.10;;;14.00;83.00;;;;;;5027990;28;20026;-76
2021/11/11 02:23:56;;;;;;;7.55;6.85;;;14.00;83.00;;;;;;5027665;28;20519;-76
2021/11/11 02:26:51;;;;;;;7.25;6.60;;;14.00;83.00;;;;;;5028750;28;20043;-75
2021/11/11 02:29:23;;;;;;;7.97;7.28;;;14.00;83.00;;;;;;5029143;28;20033;-76
2021/11/11 02:31:49;;;;;;;7.35;6.65;;;14.00;83.00;;;;;;5009091;28;20179;-76
2021/11/11 02:34:23;;;;;;;7.40;6.70;;;14.00;83.00;;;;;;5009671;28;20033;-76
2021/11/11 02:37:03;;;;;;;7.57;6.78;;;14.00;83.10;;;;;;5009556;28;20317;-76
2021/11/11 02:39:50;;;;;;;7.55;6.85;;;14.00;83.10;;;;;;5023514;28;20112;-76
2021/11/11 02:42:18;;;;;;;7.97;7.28;;;14.00;83.00;;;;;;5029901;28;20040;-75
2021/11/11 02:44:50;;;;;;;8.93;8.13;;;14.00;83.10;;;;;;5013820;28;20064;-76
2021/11/11 02:47:24;;;;;;;7.65;6.95;;;14.10;83.30;;;;;;5027325;23;20058;-82
2021/11/11 02:49:53;;;;;;;7.65;6.88;;;14.00;83.10;;;;;;5028608;28;20052;-80
2021/11/11 02:52:19;;;;;;;7.22;6.53;;;14.10;83.30;;;;;;5028769;28;20034;-82
2021/11/11 02:54:48;;;;;;;7.47;6.78;;;14.00;83.10;;;;;;5012271;28;20382;-81
2021/11/11 02:57:36;;;;;;;7.30;6.57;;;14.10;83.30;;;;;;5029060;28;20039;-83
2021/11/11 03:00:10;;;;;;;7.03;6.32;;;14.10;83.40;;;;;;5028568;28;20486;-81
2021/11/11 03:02:38;;;;;;;8.25;7.45;;;14.00;83.10;;;;;;5016977;28;20038;-81
2021/11/11 03:05:10;;;;;;;7.65;6.95;;;14.10;83.30;;;;;;4992794;28;20493;-79
2021/11/11 03:07:36;;;;;;;7.70;7.00;;;14.10;83.30;;;;;;5008989;28;20116;-79
2021/11/11 03:10:10;;;;;;;6.93;6.25;;;14.10;83.30;;;;;;5008733;28;20382;-80
2021/11/11 03:12:39;;;;;;;7.57;6.90;;;14.10;83.40;;;;;;5008581;28;20042;-79
2021/11/11 03:15:06;;;;;;;7.13;6.43;;;14.10;83.40;;;;;;5008844;28;20030;-79
2021/11/11 03:17:33;;;;;;;6.95;6.35;;;14.10;83.40;;;;;;5008513;28;20490;-80
2021/11/11 03:19:59;;;;;;;7.43;6.82;;;14.10;83.40;;;;;;5008699;28;20133;-81
2021/11/11 03:22:26;;;;;;;7.50;6.80;;;14.10;83.40;;;;;;5008773;28;20434;-78
2021/11/11 03:24:54;;;;;;;6.60;6.00;;;14.10;83.40;;;;;;5008222;28;20578;-81
2021/11/11 03:27:26;;;;;;;7.18;6.47;;;14.10;83.40;;;;;;4992414;28;20049;-81
2021/11/11 03:29:54;;;;;;;7.20;6.50;;;14.10;83.40;;;;;;4993340;28;20038;-80
2021/11/11 03:32:21;;;;;;;7.10;6.40;;;14.10;83.40;;;;;;4992272;28;20478;-80
2021/11/11 03:34:50;;;;;;;7.05;6.45;;;14.10;83.40;;;;;;4992250;28;20386;-80
2021/11/11 03:37:16;;;;;;;7.63;6.85;;;14.10;83.40;;;;;;4992369;28;20038;-81
2021/11/11 03:39:43;;;;;;;6.95;6.35;;;14.10;83.30;;;;;;4991824;28;20034;-79
2021/11/11 03:42:12;;;;;;;7.15;6.45;;;14.10;83.30;;;;;;4992331;28;20033;-80
2021/11/11 03:44:40;;;;;;;7.63;6.93;;;14.10;83.30;;;;;;4991968;28;20065;-80
2021/11/11 03:47:07;;;;;;;7.57;6.88;;;14.00;83.20;;;;;;4991754;28;20498;-79
2021/11/11 03:49:35;;;;;;;7.07;6.38;;;14.00;83.20;;;;;;4991284;28;20061;-80
2021/11/11 03:52:03;;;;;;;8.00;6.68;;;14.10;83.40;;;;;;4992012;28;20517;-79
2021/11/11 03:54:30;;;;;;;7.55;6.85;;;14.10;83.40;;;;;;4991884;28;20038;-79
2021/11/11 04:00:08;;;;;;;7.10;6.40;;;14.00;83.20;;;;;;5750786;23;20049;-79
2021/11/11 04:02:41;;;;;;;8.27;7.57;;;14.00;83.20;;;;;;4959224;28;20482;-80
2021/11/11 04:05:11;;;;;;;6.78;6.18;;;14.00;83.20;;;;;;4952924;28;20478;-81
2021/11/11 04:07:45;;;;;;;7.10;6.40;;;14.00;83.20;;;;;;4953030;28;20028;-79
2021/11/11 04:10:12;;;;;;;7.45;6.78;;;14.00;83.30;;;;;;4953050;29;20035;-80
2021/11/11 04:12:39;;;;;;;6.63;6.03;;;14.00;83.30;;;;;;4953012;28;20067;-80
2021/11/11 04:15:07;;;;;;;6.80;6.20;;;14.00;83.30;;;;;;4953121;28;20438;-81
2021/11/11 04:17:33;;;;;;;7.40;6.70;;;14.00;83.30;;;;;;4953027;28;20053;-79
2021/11/11 04:19:59;;;;;;;6.93;6.32;;;14.00;83.30;;;;;;4954028;28;20471;-81
2021/11/11 04:22:25;;;;;;;6.47;5.88;;;14.00;83.30;;;;;;4952726;28;20054;-80
2021/11/11 04:24:53;;;;;;;7.20;6.50;;;14.00;83.30;;;;;;4952669;29;20035;-80
2021/11/11 04:27:30;;;;;;;6.80;6.20;;;14.00;83.30;;;;;;4952821;29;20031;-81
2021/11/11 04:30:31;;;;;;;8.27;7.47;;;14.00;83.30;;;;;;4953884;28;20043;-79
2021/11/11 04:32:49;;;;;;;7.30;6.70;;;14.00;83.30;;;;;;4949642;28;20139;-79
2021/11/11 04:35:15;;;;;;;7.18;6.43;;;14.00;83.80;;;;;;4952464;29;20023;-79
2021/11/11 05:04:14;;;;;;;6.90;6.30;;;13.80;83.00;;;;;;4952191;29;20062;-79
2021/11/11 05:06:40;;;;;;;7.70;6.05;;;13.80;83.00;;;;;;4952371;29;20494;-79
2021/11/11 05:09:07;;;;;;;6.55;5.95;;;13.80;83.10;;;;;;4936444;29;20043;-80
2021/11/11 05:11:35;;;;;;;7.32;6.63;;;13.80;83.20;;;;;;4951914;28;20027;-79
2021/11/11 05:14:03;;;;;;;7.45;6.75;;;13.80;83.20;;;;;;4951950;29;20043;-79
2021/11/11 05:16:30;;;;;;;7.03;6.38;;;13.80;83.20;;;;;;4951772;28;20390;-79
2021/11/11 05:18:56;;;;;;;7.22;6.57;;;13.80;83.30;;;;;;4952085;29;20125;-79
2021/11/11 05:21:23;;;;;;;6.93;6.28;;;13.80;83.30;;;;;;4953332;29;20455;-79
2021/11/11 05:23:49;;;;;;;6.53;5.88;;;13.80;83.30;;;;;;4935898;29;20034;-79
2021/11/11 05:26:21;;;;;;;7.55;6.85;;;13.80;83.30;;;;;;4951980;29;20541;-80
2021/11/11 05:28:47;;;;;;;7.03;5.93;;;13.80;83.30;;;;;;4951695;28;20027;-79
2021/11/11 05:31:17;;;;;;;7.10;6.40;;;13.80;83.40;;;;;;4951443;28;20035;-79
2021/11/11 05:33:44;;;;;;;6.90;6.28;;;13.80;83.40;;;;;;4952035;28;20165;-79
2021/11/11 05:36:10;;;;;;;6.95;6.35;;;13.80;83.40;;;;;;4951779;28;20050;-80
2021/11/11 05:38:37;;;;;;;6.43;5.82;;;13.80;83.40;;;;;;4951189;28;20416;-79
2021/11/11 05:41:05;;;;;;;6.43;5.78;;;13.80;83.40;;;;;;4951697;29;20031;-79
2021/11/11 05:43:32;;;;;;;6.40;5.85;;;13.80;83.40;;;;;;4951378;28;20055;-79
2021/11/11 05:46:00;;;;;;;6.57;5.88;;;13.80;83.40;;;;;;4952049;29;20114;-79
2021/11/11 05:48:26;;;;;;;6.45;5.85;;;13.80;83.40;;;;;;4950046;28;20237;-78
2021/11/11 05:50:53;;;;;;;6.05;5.55;;;13.80;83.40;;;;;;4952213;28;20031;-80
2021/11/11 05:53:20;;;;;;;6.00;5.50;;;13.80;83.40;;;;;;4936597;29;20050;-82
2021/11/11 05:55:47;;;;;;;6.50;5.90;;;13.80;83.40;;;;;;4953246;28;20161;-81
2021/11/11 05:58:17;;;;;;;6.13;5.53;;;13.80;83.40;;;;;;4944804;28;20548;-81
2021/11/11 06:00:43;;;;;;;7.57;6.07;;;13.80;83.40;;;;;;4970866;28;20058;-80
2021/11/11 06:03:17;;;;;;;6.90;6.30;;;13.80;83.40;;;;;;4969860;28;20497;-81
2021/11/11 06:05:48;;;;;;;6.80;6.10;;;13.80;83.40;;;;;;4954159;28;20035;-81
2021/11/11 06:08:18;;;;;;;6.80;6.20;;;13.70;83.20;;;;;;4954408;28;20030;-81
2021/11/11 06:10:45;;;;;;;6.90;6.20;;;13.70;83.30;;;;;;4969696;28;20031;-81
2021/11/11 06:13:11;;;;;;;7.45;6.75;;;13.80;83.50;;;;;;4969097;28;20051;-80
2021/11/11 06:15:37;;;;;;;7.18;6.57;;;13.70;83.30;;;;;;4969794;28;20126;-81
2021/11/11 06:18:03;;;;;;;6.65;6.05;;;13.80;83.50;;;;;;4969488;28;20478;-81
2021/11/11 06:20:33;;;;;;;7.03;6.18;;;13.80;83.50;;;;;;4953927;28;20059;-82
2021/11/11 06:23:07;;;;;;;6.05;5.53;;;13.70;83.30;;;;;;4969479;28;20074;-80
2021/11/11 06:25:35;;;;;;;6.78;6.13;;;13.80;83.50;;;;;;4969881;28;20023;-81
2021/11/11 06:28:04;;;;;;;6.78;6.18;;;13.70;83.30;;;;;;4970511;28;20041;-81
2021/11/11 06:30:30;;;;;;;7.40;6.70;;;13.70;83.30;;;;;;4953501;28;20123;-83
2021/11/11 06:32:56;;;;;;;6.15;5.57;;;13.80;83.50;;;;;;4969382;28;20070;-86
2021/11/11 06:35:28;;;;;;;6.70;6.03;;;13.80;83.50;;;;;;4954231;28;20505;-84
2021/11/11 06:37:55;;;;;;;7.07;6.47;;;13.80;83.50;;;;;;4953207;28;20478;-82
2021/11/11 06:40:23;;;;;;;6.95;6.30;;;13.80;83.40;;;;;;4969628;28;20668;-82
2021/11/11 06:42:49;;;;;;;7.53;6.40;;;13.80;83.40;;;;;;4971644;28;20386;-84
2021/11/11 06:45:16;;;;;;;7.03;6.32;;;13.80;83.50;;;;;;4970723;28;20029;-89
2021/11/11 06:47:42;;;;;;;7.35;6.65;;;13.80;83.40;;;;;;4969678;28;20058;-86
2021/11/11 06:50:11;;;;;;;6.15;5.55;;;13.80;83.40;;;;;;4970454;28;20038;-84
2021/11/11 06:52:37;;;;;;;6.50;5.88;;;13.80;83.40;;;;;;4971180;28;20074;-86
2021/11/11 06:55:06;;;;;;;7.03;6.32;;;13.80;83.40;;;;;;4971276;28;20031;-86
2021/11/11 06:57:35;;;;;;;6.72;6.13;;;13.80;83.50;;;;;;4953105;28;20038;-89
2021/11/11 07:00:10;;;;;;;7.05;6.32;;;13.70;83.30;;;;;;4969477;28;20138;-85
2021/11/11 07:02:37;;;;;;;6.90;6.30;;;13.70;83.30;;;;;;4970291;28;20437;-83
2021/11/11 07:05:05;;;;;;;6.60;5.80;;;13.70;83.30;;;;;;4969382;28;20031;-88
2021/11/11 07:07:33;;;;;;;6.90;6.30;;;13.70;83.30;;;;;;4954553;28;20050;-88
2021/11/11 07:09:59;;;;;;;7.95;7.05;;;13.70;83.30;;;;;;4970581;28;20382;-86
2021/11/11 07:12:31;;;;;;;6.13;5.60;;;13.70;83.30;;;;;;4953304;28;20081;-83
2021/11/11 07:14:57;;;;;;;6.80;6.15;;;13.70;83.30;;;;;;4969065;28;20041;-85
2021/11/11 07:17:24;;;;;;;6.95;6.25;;;13.70;83.30;;;;;;4952901;28;20027;-86
2021/11/11 07:19:50;;;;;;;6.32;5.72;;;13.70;83.20;;;;;;4970084;28;20478;-83
2021/11/11 07:22:16;;;;;;;7.03;6.43;;;13.70;83.20;;;;;;4952730;28;20033;-91
2021/11/11 07:24:43;;;;;;;6.93;6.25;;;13.60;83.10;;;;;;4970857;28;20090;-88
2021/11/11 07:27:09;;;;;;;6.28;5.72;;;13.60;83.10;;;;;;4954176;28;20023;-88
2021/11/11 07:29:35;;;;;;;7.13;6.43;;;13.60;83.10;;;;;;4952745;28;20031;-88
2021/11/11 07:32:53;;;;;;;6.78;6.15;;;13.60;83.10;;;;;;4952454;28;20047;-89
2021/11/11 07:35:24;;;;;;;6.43;5.82;;;13.60;83.10;;;;;;4964869;28;20074;-85
2021/11/11 07:37:51;;;;;;;6.63;6.03;;;13.50;82.90;;;;;;4950756;28;20026;-86
2021/11/11 07:40:20;;;;;;;7.07;6.45;;;13.60;83.00;;;;;;4950613;28;20038;-85
2021/11/11 07:42:47;;;;;;;6.00;5.40;;;13.50;82.90;;;;;;4956202;28;20524;-88
2021/11/11 07:45:23;;;;;;;6.38;5.78;;;13.50;82.80;;;;;;4954764;28;20039;-86
2021/11/11 07:47:49;;;;;;;;;;;13.50;82.80;;;;;;4968921;28;20392;-88
2021/11/11 07:50:15;;;;;;;6.03;5.43;;;13.50;82.90;;;;;;4969092;28;19910;-82
2021/11/11 07:52:41;;;;;;;6.03;5.43;;;13.50;82.80;;;;;;4952195;28;20505;-87
2021/11/11 07:55:08;;;;;;;7.38;6.68;;;13.50;82.80;;;;;;4966815;28;20053;-81
2021/11/11 07:57:37;;;;;;;7.22;6.40;;;13.40;82.70;;;;;;4969749;28;20042;-89
2021/11/11 08:00:09;;;;;;;7.28;6.55;;;13.40;82.70;;;;;;4962605;28;20125;-89
2021/11/11 08:02:40;;;;;;;6.38;5.78;;;13.40;82.70;;;;;;4963604;28;20034;-87
2021/11/11 08:05:09;;;;;;;6.57;5.97;;;13.40;82.70;;;;;;4952458;28;20501;-90
2021/11/11 08:07:36;;;;;;;6.30;5.70;;;13.40;82.70;;;;;;4969768;28;20037;-87
2021/11/11 08:10:03;;;;;;;6.95;6.32;;;13.40;82.70;;;;;;4936900;28;20027;-81
2021/11/11 08:12:29;;;;;;;6.13;5.57;;;13.40;82.80;;;;;;4951521;28;20110;-84
2021/11/11 08:14:57;;;;;;;6.07;5.47;;;13.40;82.80;;;;;;4967838;28;20027;-85
2021/11/11 08:17:24;;;;;;;6.28;5.68;;;13.40;82.80;;;;;;4967390;28;20034;-85
2021/11/11 08:19:54;;;;;;;6.90;6.20;;;13.40;82.80;;;;;;4950979;28;20043;-85
2021/11/11 08:22:21;;;;;;;6.90;6.28;;;13.40;82.80;;;;;;4967387;28;20038;-86
2021/11/11 08:24:48;;;;;;;6.32;5.72;;;13.40;82.80;;;;;;4968948;28;20027;-84
2021/11/11 08:27:15;;;;;;;7.03;6.30;;;13.40;82.80;;;;;;4951069;28;20031;-83
2021/11/11 08:29:43;;;;;;;5.68;5.18;;;13.50;83.10;;;;;;4952000;28;20080;-86
2021/11/11 08:32:10;;;;;;;6.50;5.88;;;13.50;83.10;;;;;;4967037;28;20050;-88
2021/11/11 08:39:15;;;;;;;6.75;6.05;;;13.50;83.10;;;;;;4972401;28;20118;-86
2021/11/11 08:43:13;;;;;;;6.63;6.03;;;13.60;83.20;;;;;;4949046;28;20089;-86
2021/11/11 08:47:35;;;;;;;6.25;5.65;;;13.60;83.10;;;;;;4946315;28;20117;-84
2021/11/11 08:52:05;;;;;;;6.30;5.70;;;13.60;83.00;;;;;;4898292;28;20245;-87
2021/11/11 08:56:30;;;;;;;6.30;5.65;;;13.60;82.90;;;;;;4967250;28;20045;-91
2021/11/11 09:00:59;;;;;;;6.63;6.03;;;13.70;83.00;;;;;;4965136;28;20395;-83
2021/11/11 09:05:35;;;;;;;7.00;6.30;;;13.70;82.90;;;;;;4947252;29;20070;-88
2021/11/11 09:09:32;;;;;;;6.70;6.10;;;13.80;83.00;;;;;;4954692;28;20039;-87
2021/11/11 09:13:22;;;;;;;5.80;5.28;;;13.90;83.10;;;;;;4954945;28;20051;-86
2021/11/11 09:15:48;;;;;;;6.25;5.47;;;13.90;83.10;;;;;;4948644;28;20043;-87
2021/11/11 09:18:15;;;;;;;5.82;5.32;;;13.90;83.00;;;;;;4965447;28;20042;-83
2021/11/11 09:20:41;;;;;;;5.32;4.82;;;14.00;83.30;;;;;;4949717;28;20449;-86
2021/11/11 09:23:08;;;;;;;5.88;5.28;;;14.00;83.20;;;;;;4952416;28;20130;-90
2021/11/11 09:25:58;;;;;;;5.85;5.30;;;14.10;83.40;;;;;;4954947;28;20023;-90
2021/11/11 09:30:19;;;;;;;5.55;5.05;;;14.10;83.40;;;;;;4971264;28;20053;-91
2021/11/11 09:34:37;;;;;;;4.63;4.22;;;14.20;83.40;;;;;;4945583;28;20561;-84
2021/11/11 09:39:07;;;;;;;5.50;5.00;;;14.30;83.50;;;;;;4950736;28;20093;-93
2021/11/11 09:41:34;;;;;;;5.78;5.28;;;14.30;83.30;;;;;;4932739;29;20849;-89
2021/11/11 09:44:00;;;;;;;5.15;4.70;;;14.40;83.40;;;;;;4931867;29;20488;-87
2021/11/11 09:46:26;;;;;;;5.90;5.30;;;14.40;83.40;;;;;;4916366;28;20039;-91
2021/11/11 09:48:52;;;;;;;4.63;4.22;;;14.50;83.50;;;;;;4931663;29;20339;-86
2021/11/11 09:51:22;;;;;;;5.22;4.82;;;14.60;83.60;;;;;;4930480;29;20035;-85
2021/11/11 10:02:05;;;;;;;5.15;4.65;;;14.90;83.80;;;;;;4915076;29;20503;-89
2021/11/11 10:04:34;;;;;;;4.20;3.70;;;15.00;83.60;;;;;;4911452;29;20067;-90
2021/11/11 10:08:05;;;;;;;4.38;3.97;;;15.10;83.70;;;;;;4919411;28;20135;-85
2021/11/11 10:10:43;;;;;;;4.20;3.88;;;15.10;83.50;;;;;;4947755;28;20051;-84
2021/11/11 10:14:36;;;;;;;4.03;3.63;;;15.10;83.40;;;;;;4945955;28;20398;-89
2021/11/11 10:21:39;;;;;;;4.40;4.00;;;15.20;83.40;;;;;;4967723;28;20031;-88
2021/11/11 10:24:51;;;;;;;4.03;3.63;;;15.20;83.30;;;;;;4854409;29;20555;-84
2021/11/11 10:27:25;;;;;;;4.88;4.43;;;15.30;83.30;;;;;;4869825;29;20527;-82
2021/11/11 10:29:53;;;;;;;3.80;3.50;;;15.30;83.30;;;;;;4911018;29;20039;-82
2021/11/11 10:32:28;;;;;;;4.10;3.70;;;15.30;83.30;;;;;;4909460;29;20051;-82
2021/11/11 10:34:57;;;;;;;4.20;3.80;;;15.30;83.20;;;;;;4926495;29;20465;-82
2021/11/11 10:37:29;;;;;;;3.65;3.35;;;15.30;83.20;;;;;;4897737;29;20167;-81
2021/11/11 10:40:09;;;;;;;3.80;3.38;;;15.30;83.10;;;;;;4897564;29;20039;-83
2021/11/11 10:42:38;;;;;;;3.75;3.45;;;15.30;83.10;;;;;;4886823;29;20039;-81
2021/11/11 10:45:09;;;;;;;3.65;3.35;;;15.30;83.00;;;;;;4903241;29;20040;-82
2021/11/11 10:47:36;;;;;;;4.03;3.63;;;15.30;83.00;;;;;;4933766;28;20043;-82
2021/11/11 10:50:11;;;;;;;3.97;3.63;;;15.30;83.00;;;;;;4965872;28;20468;-75
2021/11/11 10:52:48;;;;;;;2.40;2.20;;;15.30;82.90;;;;;;4934030;29;20566;-79
2021/11/11 10:55:25;;;;;;;3.10;2.72;;;15.30;82.80;;;;;;4971028;28;20343;-79
2021/11/11 10:57:56;;;;;;;2.58;2.38;;;15.40;83.00;;;;;;4988997;28;20038;-82
2021/11/11 11:00:33;;;;;;;2.65;2.45;;;15.40;83.00;;;;;;4972014;28;20437;-79
2021/11/11 11:03:09;;;;;;;2.40;2.20;;;15.40;82.90;;;;;;4955121;28;20086;-80
2021/11/11 11:05:49;;;;;;;2.08;1.88;;;15.40;82.90;;;;;;4989116;28;20497;-80
2021/11/11 11:08:25;;;;;;;2.30;2.10;;;15.40;82.80;;;;;;4971728;28;20034;-80
2021/11/11 11:10:56;;;;;;;2.42;2.22;;;15.40;82.70;;;;;;4988985;28;20503;-80
2021/11/11 11:13:27;;;;;;;3.08;1.92;;;15.50;82.90;;;;;;4955505;28;20048;-80
2021/11/11 11:15:57;;;;;;;2.20;2.00;;;15.50;82.80;;;;;;4988902;28;20117;-80
2021/11/11 11:18:27;;;;;;;3.55;2.17;;;15.50;82.80;;;;;;4988262;28;20108;-80
2021/11/11 11:20:56;;;;;;;2.25;2.05;;;15.50;82.70;;;;;;4989171;28;20354;-82
2021/11/11 11:23:37;;;;;;;2.38;2.17;;;15.50;82.60;;;;;;4971535;28;20065;-80
2021/11/11 11:26:19;;;;;;;2.45;2.25;;;15.60;82.70;;;;;;4955256;28;20397;-79
2021/11/11 11:28:50;;;;;;;1.83;1.73;;;15.60;82.70;;;;;;4955189;28;20057;-80
2021/11/11 11:32:03;;;;;;;2.63;2.42;;;15.60;82.60;;;;;;4988732;28;20090;-78
2021/11/11 11:34:43;;;;;;;1.75;1.65;;;15.60;82.60;;;;;;4959691;28;20070;-78
2021/11/11 11:37:12;;;;;;;2.20;2.00;;;15.60;82.60;;;;;;4968734;28;20170;-81
2021/11/11 11:39:47;;;;;;;1.67;1.58;;;15.60;82.50;;;;;;4968598;28;20033;-79
2021/11/11 11:42:21;;;;;;;1.75;1.65;;;15.70;82.60;;;;;;4988191;28;20028;-82
2021/11/11 11:44:51;;;;;;;1.77;1.60;;;15.80;82.80;;;;;;4971396;28;20034;-79
2021/11/11 11:47:31;;;;;;;2.25;2.00;;;15.80;83.10;;;;;;4971040;28;20034;-78
2021/11/11 11:50:13;;;;;;;2.45;1.85;;;15.90;82.70;;;;;;4988431;28;20073;-79
2021/11/11 11:52:44;;;;;;;1.87;1.77;;;15.90;82.60;;;;;;4954567;28;20487;-80
2021/11/11 12:00:48;;;;;;;1.42;1.27;;;16.00;82.50;;;;;;4988240;28;20018;-78
2021/11/11 12:09:16;;;;;;;1.90;1.70;;;16.20;82.60;;;;;;4970670;28;20440;-78
2021/11/11 12:14:55;;;;;;;1.38;1.08;;;16.40;82.50;;;;;;4987169;28;20042;-81
2021/11/11 12:39:46;;;;;;;2.30;1.23;;;17.10;82.40;;;;;;4987652;28;20030;-80
2021/11/11 12:42:31;;;;;;;1.15;0.95;;;17.20;82.30;;;;;;4954205;28;20068;-79
2021/11/11 12:45:21;;;;;;;1.40;1.30;;;17.20;82.20;;;;;;4988227;28;20061;-79
2021/11/11 12:48:05;;;;;;;1.20;1.10;;;17.20;82.10;;;;;;4985870;28;20365;-79
2021/11/11 12:50:43;;;;;;;1.95;0.82;;;17.30;82.00;;;;;;4969674;28;20490;-77
2021/11/11 12:53:19;;;;;;;1.25;1.15;;;17.30;81.90;;;;;;4987616;28;20049;-78
2021/11/11 12:56:10;;;;;;;1.30;1.10;;;17.40;82.00;;;;;;4970192;28;20034;-78
2021/11/11 12:58:44;;;;;;;1.20;1.10;;;17.40;81.90;;;;;;4969679;28;20031;-79
2021/11/11 13:01:33;;;;;;;1.05;1.05;;;17.40;81.80;;;;;;4987588;28;20034;-79
2021/11/11 13:04:05;;;;;;;1.20;1.05;;;17.40;81.60;;;;;;4987005;28;20046;-80
2021/11/11 13:06:52;;;;;;;1.17;1.10;;;17.50;81.70;;;;;;4986861;28;20044;-80
2021/11/11 13:09:19;;;;;;;1.13;1.02;;;17.50;81.50;;;;;;4987056;28;20502;-80
2021/11/11 13:11:56;;;;;;;1.15;1.00;;;17.50;81.50;;;;;;4969990;28;20066;-79
2021/11/11 13:14:28;;;;;;;0.98;0.98;;;17.50;81.40;;;;;;4953556;28;20511;-78
2021/11/11 13:16:54;;;;;;;2.78;0.95;;;17.50;81.40;;;;;;4986961;28;20481;-79
2021/11/11 13:19:40;;;;;;;1.20;1.08;;;17.40;81.20;;;;;;4987145;28;20073;-79
2021/11/11 13:22:16;;;;;;;1.40;1.00;;;17.40;81.10;;;;;;4987092;28;20034;-78
2021/11/11 14:04:02;;;;;;;1.80;1.10;;;17.10;80.80;;;;;;4986102;28;20488;-79
2021/11/11 15:46:48;;;;;;;2.15;1.40;;;16.10;80.10;;;;;;4971325;28;20080;-82
2021/11/11 16:26:49;;;;;;;2.05;1.85;;;15.50;80.00;;;;;;4988684;28;20026;-81
2021/11/11 16:29:15;;;;;;;1.13;1.02;;;15.50;80.10;;;;;;4970756;28;20195;-81
2021/11/11 16:31:41;;;;;;;1.55;1.45;;;15.40;80.00;;;;;;4988383;28;20033;-80
2021/11/11 16:34:07;;;;;;;1.50;1.20;;;15.40;80.00;;;;;;4986815;28;20054;-81
2021/11/11 16:36:37;;;;;;;1.88;1.50;;;15.40;80.10;;;;;;4969673;28;20030;-81
2021/11/11 16:39:04;;;;;;;1.83;1.42;;;15.40;80.20;;;;;;4970124;28;20038;-82
2021/11/11 16:41:32;;;;;;;1.50;1.15;;;15.30;80.00;;;;;;4987687;28;20026;-81
2021/11/11 16:43:58;;;;;;;2.28;1.17;;;15.30;80.10;;;;;;4987322;28;20027;-81
2021/11/11 16:46:24;;;;;;;2.35;1.92;;;15.30;80.10;;;;;;4988051;28;20481;-79
2021/11/11 16:48:50;;;;;;;2.08;1.52;;;15.30;80.20;;;;;;4969920;28;20124;-81
2021/11/11 16:51:17;;;;;;;2.15;1.40;;;15.20;80.10;;;;;;4954391;28;20477;-81
2021/11/11 16:53:44;;;;;;;1.95;1.50;;;15.20;80.10;;;;;;4986844;28;20556;-80
2021/11/11 16:56:12;;;;;;;2.25;1.60;;;15.20;80.10;;;;;;4970066;28;20491;-80
2021/11/11 16:58:39;;;;;;;2.13;1.75;;;15.20;80.70;;;;;;4987171;28;20068;-80
2021/11/11 17:01:05;;;;;;;2.10;1.60;;;15.10;80.10;;;;;;4987717;28;20033;-84
2021/11/11 17:03:31;;;;;;;2.42;1.67;;;15.10;80.10;;;;;;4976433;28;20257;-83
2021/11/11 17:05:58;;;;;;;3.53;1.50;;;15.10;80.20;;;;;;4949219;28;20026;-85
2021/11/11 17:08:27;;;;;;;2.40;1.50;;;15.10;80.30;;;;;;4949070;28;20034;-83
2021/11/11 17:10:53;;;;;;;2.70;2.10;;;15.10;80.40;;;;;;4967373;28;20209;-81
2021/11/11 17:13:19;;;;;;;2.80;1.90;;;15.10;80.50;;;;;;4967729;28;20378;-83
2021/11/11 17:15:45;;;;;;;3.05;2.03;;;15.10;80.50;;;;;;4967601;28;20046;-83
2021/11/11 17:18:13;;;;;;;1.92;1.67;;;15.00;80.30;;;;;;4968288;28;20031;-82
2021/11/11 17:20:40;;;;;;;3.80;2.08;;;15.00;80.30;;;;;;4934316;28;20034;-87
2021/11/11 17:23:07;;;;;;;3.33;2.03;;;15.00;80.30;;;;;;4935601;28;20031;-87
2021/11/11 17:30:35;;;;;;;5.28;3.92;;;14.90;80.40;;;;;;4964000;28;20105;-80
2021/11/11 17:33:02;;;;;;;3.83;3.08;;;14.90;80.40;;;;;;4962538;28;20508;-81
2021/11/11 17:35:29;;;;;;;4.78;3.28;;;14.90;80.40;;;;;;4967321;28;20117;-85
2021/11/11 17:37:55;;;;;;;3.63;3.30;;;14.90;80.40;;;;;;4966857;28;20394;-82
2021/11/11 17:40:22;;;;;;;4.15;3.38;;;14.90;80.40;;;;;;4967806;28;20035;-83
2021/11/11 17:42:51;;;;;;;4.18;2.88;;;14.80;80.20;;;;;;4950569;28;20292;-83
2021/11/11 17:45:28;;;;;;;4.13;3.28;;;14.80;80.20;;;;;;4949475;28;20060;-81
2021/11/11 17:47:56;;;;;;;3.65;3.25;;;14.80;80.20;;;;;;4966924;28;20114;-82
2021/11/11 17:50:28;;;;;;;3.78;2.97;;;14.70;80.10;;;;;;4966509;28;20043;-80